sensor_id;sensor_type;location;lat;lon;timestamp;temperature;humidity
25410;DHT22;13339;50.840;4.346;2022-11-15T00:00:20;14.60;99.90
25410;DHT22;13339;50.840;4.346;2022-11-15T00:02:46;14.60;99.90
25410;DHT22;13339;50.840;4.346;2022-11-15T00:05:12;14.60;99.90
25410;DHT22;13339;50.840;4.346;2022-11-15T00:07:37;14.60;99.90
25410;DHT22;13339;50.840;4.346;2022-11-15T00:10:03;14.60;99.90
25410;DHT22;13339;50.840;4.346;2022-11-15T00:12:29;14.50;99.90
25410;DHT22;13339;50.840;4.346;2022-11-15T00:14:54;14.60;99.90
25410;DHT22;13339;50.840;4.346;2022-11-15T00:17:20;14.60;99.90
25410;DHT22;13339;50.840;4.346;2022-11-15T00:19:46;14.50;99.90
25410;DHT22;13339;50.840;4.346;2022-11-15T00:22:11;14.50;99.90
25410;DHT22;13339;50.840;4.346;2022-11-15T00:24:37;14.50;99.90
25410;DHT22;13339;50.840;4.346;2022-11-15T00:27:03;14.40;99.90
25410;DHT22;13339;50.840;4.346;2022-11-15T00:29:28;14.50;99.90
25410;DHT22;13339;50.840;4.346;2022-11-15T00:31:54;14.40;99.90
25410;DHT22;13339;50.840;4.346;2022-11-15T00:34:19;14.50;99.90
25410;DHT22;13339;50.840;4.346;2022-11-15T00:36:45;14.50;99.90
25410;DHT22;13339;50.840;4.346;2022-11-15T00:39:10;14.50;99.90
25410;DHT22;13339;50.840;4.346;2022-11-15T00:41:37;14.40;99.90
25410;DHT22;13339;50.840;4.346;2022-11-15T00:44:03;14.50;99.90
25410;DHT22;13339;50.840;4.346;2022-11-15T00:46:28;14.40;99.90
25410;DHT22;13339;50.840;4.346;2022-11-15T00:48:54;14.50;99.90
25410;DHT22;13339;50.840;4.346;2022-11-15T00:51:19;14.60;99.90
25410;DHT22;13339;50.840;4.346;2022-11-15T00:53:45;14.60;99.90
25410;DHT22;13339;50.840;4.346;2022-11-15T00:56:10;14.50;99.90
25410;DHT22;13339;50.840;4.346;2022-11-15T00:58:36;14.60;99.90
25410;DHT22;13339;50.840;4.346;2022-11-15T01:01:10;14.60;99.90
25410;DHT22;13339;50.840;4.346;2022-11-15T01:03:38;14.60;99.90
25410;DHT22;13339;50.840;4.346;2022-11-15T01:06:04;14.60;99.90
25410;DHT22;13339;50.840;4.346;2022-11-15T01:08:30;14.70;99.90
25410;DHT22;13339;50.840;4.346;2022-11-15T01:11:01;14.70;99.90
25410;DHT22;13339;50.840;4.346;2022-11-15T01:13:32;14.70;99.90
25410;DHT22;13339;50.840;4.346;2022-11-15T01:15:58;14.80;99.90
25410;DHT22;13339;50.840;4.346;2022-11-15T01:18:24;14.90;99.90
25410;DHT22;13339;50.840;4.346;2022-11-15T01:20:50;14.70;99.90
25410;DHT22;13339;50.840;4.346;2022-11-15T01:23:15;14.60;99.90
25410;DHT22;13339;50.840;4.346;2022-11-15T01:25:41;14.70;99.90
25410;DHT22;13339;50.840;4.346;2022-11-15T01:28:06;14.70;99.90
25410;DHT22;13339;50.840;4.346;2022-11-15T01:30:32;14.70;99.90
25410;DHT22;13339;50.840;4.346;2022-11-15T01:32:58;14.70;99.90
25410;DHT22;13339;50.840;4.346;2022-11-15T01:35:23;14.70;99.90
25410;DHT22;13339;50.840;4.346;2022-11-15T01:37:49;14.80;99.90
25410;DHT22;13339;50.840;4.346;2022-11-15T01:40:14;14.80;99.90
25410;DHT22;13339;50.840;4.346;2022-11-15T01:42:40;14.80;99.90
25410;DHT22;13339;50.840;4.346;2022-11-15T01:45:07;14.70;99.90
25410;DHT22;13339;50.840;4.346;2022-11-15T01:47:41;14.80;99.90
25410;DHT22;13339;50.840;4.346;2022-11-15T01:50:13;14.80;99.90
25410;DHT22;13339;50.840;4.346;2022-11-15T01:52:40;14.80;99.90
25410;DHT22;13339;50.840;4.346;2022-11-15T01:57:34;14.80;99.90
25410;DHT22;13339;50.840;4.346;2022-11-15T02:00:02;14.80;99.90
25410;DHT22;13339;50.840;4.346;2022-11-15T02:02:28;14.90;99.90
25410;DHT22;13339;50.840;4.346;2022-11-15T02:04:54;14.90;99.90
25410;DHT22;13339;50.840;4.346;2022-11-15T02:07:21;15.00;99.90
25410;DHT22;13339;50.840;4.346;2022-11-15T02:09:48;15.00;99.90
25410;DHT22;13339;50.840;4.346;2022-11-15T02:12:17;14.90;99.90
25410;DHT22;13339;50.840;4.346;2022-11-15T02:14:51;14.90;99.90
25410;DHT22;13339;50.840;4.346;2022-11-15T02:20:30;14.70;99.90
25410;DHT22;13339;50.840;4.346;2022-11-15T02:34:22;14.80;99.90
25410;DHT22;13339;50.840;4.346;2022-11-15T02:39:58;14.80;99.90
25410;DHT22;13339;50.840;4.346;2022-11-15T02:42:32;14.90;99.90
25410;DHT22;13339;50.840;4.346;2022-11-15T02:45:27;14.70;99.90
25410;DHT22;13339;50.840;4.346;2022-11-15T02:47:56;14.70;99.90
25410;DHT22;13339;50.840;4.346;2022-11-15T02:50:27;14.70;99.90
25410;DHT22;13339;50.840;4.346;2022-11-15T02:52:53;14.70;99.90
25410;DHT22;13339;50.840;4.346;2022-11-15T03:01:04;14.80;99.90
25410;DHT22;13339;50.840;4.346;2022-11-15T03:03:45;14.90;99.90
25410;DHT22;13339;50.840;4.346;2022-11-15T03:08:54;14.80;99.90
25410;DHT22;13339;50.840;4.346;2022-11-15T03:11:22;14.60;99.90
25410;DHT22;13339;50.840;4.346;2022-11-15T03:14:21;14.60;99.90
25410;DHT22;13339;50.840;4.346;2022-11-15T03:17:16;14.80;99.90
25410;DHT22;13339;50.840;4.346;2022-11-15T03:19:54;14.70;99.90
25410;DHT22;13339;50.840;4.346;2022-11-15T03:22:23;14.60;99.90
25410;DHT22;13339;50.840;4.346;2022-11-15T03:24:59;14.70;99.90
25410;DHT22;13339;50.840;4.346;2022-11-15T03:27:31;14.70;99.90
25410;DHT22;13339;50.840;4.346;2022-11-15T03:30:00;14.70;99.90
25410;DHT22;13339;50.840;4.346;2022-11-15T03:32:34;14.60;99.90
25410;DHT22;13339;50.840;4.346;2022-11-15T03:35:06;14.70;99.90
25410;DHT22;13339;50.840;4.346;2022-11-15T03:37:55;14.70;99.90
25410;DHT22;13339;50.840;4.346;2022-11-15T03:40:29;14.80;99.90
25410;DHT22;13339;50.840;4.346;2022-11-15T03:43:05;14.70;99.90
25410;DHT22;13339;50.840;4.346;2022-11-15T03:45:45;14.50;99.90
25410;DHT22;13339;50.840;4.346;2022-11-15T03:48:13;14.40;99.90
25410;DHT22;13339;50.840;4.346;2022-11-15T03:50:40;14.40;99.90
25410;DHT22;13339;50.840;4.346;2022-11-15T03:53:07;14.50;99.90
25410;DHT22;13339;50.840;4.346;2022-11-15T03:55:33;14.50;99.90
25410;DHT22;13339;50.840;4.346;2022-11-15T03:57:59;14.50;99.90
25410;DHT22;13339;50.840;4.346;2022-11-15T04:00:26;14.30;99.90
25410;DHT22;13339;50.840;4.346;2022-11-15T04:02:51;14.30;99.90
25410;DHT22;13339;50.840;4.346;2022-11-15T04:05:17;14.30;99.90
25410;DHT22;13339;50.840;4.346;2022-11-15T04:07:43;14.30;99.90
25410;DHT22;13339;50.840;4.346;2022-11-15T04:10:10;14.40;99.90
25410;DHT22;13339;50.840;4.346;2022-11-15T04:12:38;14.40;99.90
25410;DHT22;13339;50.840;4.346;2022-11-15T04:15:07;14.40;99.90
25410;DHT22;13339;50.840;4.346;2022-11-15T04:17:44;14.50;99.90
25410;DHT22;13339;50.840;4.346;2022-11-15T04:20:22;14.50;99.90
25410;DHT22;13339;50.840;4.346;2022-11-15T04:23:17;14.60;99.90
25410;DHT22;13339;50.840;4.346;2022-11-15T04:26:08;14.60;99.90
25410;DHT22;13339;50.840;4.346;2022-11-15T04:28:35;14.50;99.90
25410;DHT22;13339;50.840;4.346;2022-11-15T04:31:21;14.50;99.90
25410;DHT22;13339;50.840;4.346;2022-11-15T04:33:47;14.50;99.90
25410;DHT22;13339;50.840;4.346;2022-11-15T04:36:12;14.40;99.90
25410;DHT22;13339;50.840;4.346;2022-11-15T04:38:57;14.40;99.90
25410;DHT22;13339;50.840;4.346;2022-11-15T04:41:22;14.20;99.90
25410;DHT22;13339;50.840;4.346;2022-11-15T04:43:48;14.20;99.90
25410;DHT22;13339;50.840;4.346;2022-11-15T04:46:14;14.30;99.90
25410;DHT22;13339;50.840;4.346;2022-11-15T04:48:39;14.20;99.90
25410;DHT22;13339;50.840;4.346;2022-11-15T04:51:05;14.20;99.90
25410;DHT22;13339;50.840;4.346;2022-11-15T04:53:30;14.10;99.90
25410;DHT22;13339;50.840;4.346;2022-11-15T04:55:56;14.20;99.90
25410;DHT22;13339;50.840;4.346;2022-11-15T04:58:21;14.10;99.90
25410;DHT22;13339;50.840;4.346;2022-11-15T05:00:47;14.20;99.90
25410;DHT22;13339;50.840;4.346;2022-11-15T05:03:13;14.10;99.90
25410;DHT22;13339;50.840;4.346;2022-11-15T05:05:57;14.10;99.90
25410;DHT22;13339;50.840;4.346;2022-11-15T05:08:24;14.00;99.90
25410;DHT22;13339;50.840;4.346;2022-11-15T05:10:49;13.80;99.90
25410;DHT22;13339;50.840;4.346;2022-11-15T05:13:15;13.90;99.90
25410;DHT22;13339;50.840;4.346;2022-11-15T05:15:41;13.90;99.90
25410;DHT22;13339;50.840;4.346;2022-11-15T05:18:06;13.90;99.90
25410;DHT22;13339;50.840;4.346;2022-11-15T05:20:32;13.90;99.90
25410;DHT22;13339;50.840;4.346;2022-11-15T05:22:57;13.90;99.90
25410;DHT22;13339;50.840;4.346;2022-11-15T05:25:23;13.70;99.90
25410;DHT22;13339;50.840;4.346;2022-11-15T05:27:49;13.70;99.90
25410;DHT22;13339;50.840;4.346;2022-11-15T05:30:15;13.60;99.90
25410;DHT22;13339;50.840;4.346;2022-11-15T05:32:40;13.70;99.90
25410;DHT22;13339;50.840;4.346;2022-11-15T05:35:08;13.60;99.90
25410;DHT22;13339;50.840;4.346;2022-11-15T05:37:37;13.60;99.90
25410;DHT22;13339;50.840;4.346;2022-11-15T05:40:03;13.60;99.90
25410;DHT22;13339;50.840;4.346;2022-11-15T05:42:29;13.60;99.90
25410;DHT22;13339;50.840;4.346;2022-11-15T05:44:56;13.60;99.90
25410;DHT22;13339;50.840;4.346;2022-11-15T05:47:25;13.60;99.90
25410;DHT22;13339;50.840;4.346;2022-11-15T05:49:53;13.60;99.90
25410;DHT22;13339;50.840;4.346;2022-11-15T05:52:22;13.40;99.90
25410;DHT22;13339;50.840;4.346;2022-11-15T05:54:50;13.40;99.90
25410;DHT22;13339;50.840;4.346;2022-11-15T05:57:16;13.40;99.90
25410;DHT22;13339;50.840;4.346;2022-11-15T05:59:42;13.40;99.90
25410;DHT22;13339;50.840;4.346;2022-11-15T06:02:09;13.40;99.90
25410;DHT22;13339;50.840;4.346;2022-11-15T06:04:34;13.40;99.90
25410;DHT22;13339;50.840;4.346;2022-11-15T06:07:00;13.40;99.90
25410;DHT22;13339;50.840;4.346;2022-11-15T06:09:26;13.40;99.90
25410;DHT22;13339;50.840;4.346;2022-11-15T06:11:51;13.40;99.90
25410;DHT22;13339;50.840;4.346;2022-11-15T06:14:17;13.30;99.90
25410;DHT22;13339;50.840;4.346;2022-11-15T06:16:43;13.30;99.90
25410;DHT22;13339;50.840;4.346;2022-11-15T06:19:09;13.30;99.90
25410;DHT22;13339;50.840;4.346;2022-11-15T06:21:35;13.40;99.90
25410;DHT22;13339;50.840;4.346;2022-11-15T06:24:00;13.30;99.90
25410;DHT22;13339;50.840;4.346;2022-11-15T06:26:26;13.30;99.90
25410;DHT22;13339;50.840;4.346;2022-11-15T06:28:52;13.30;99.90
25410;DHT22;13339;50.840;4.346;2022-11-15T06:31:18;13.30;99.90
25410;DHT22;13339;50.840;4.346;2022-11-15T06:33:43;13.30;99.90
25410;DHT22;13339;50.840;4.346;2022-11-15T06:36:10;13.30;99.90
25410;DHT22;13339;50.840;4.346;2022-11-15T06:38:39;13.20;99.90
25410;DHT22;13339;50.840;4.346;2022-11-15T06:41:07;13.10;99.90
25410;DHT22;13339;50.840;4.346;2022-11-15T06:43:34;13.10;99.90
25410;DHT22;13339;50.840;4.346;2022-11-15T06:46:01;13.10;99.90
25410;DHT22;13339;50.840;4.346;2022-11-15T06:48:27;13.30;99.90
25410;DHT22;13339;50.840;4.346;2022-11-15T06:50:55;13.10;99.90
25410;DHT22;13339;50.840;4.346;2022-11-15T06:53:21;13.10;99.90
25410;DHT22;13339;50.840;4.346;2022-11-15T06:55:46;13.10;99.90
25410;DHT22;13339;50.840;4.346;2022-11-15T06:58:12;13.00;99.90
25410;DHT22;13339;50.840;4.346;2022-11-15T07:00:37;12.90;99.90
25410;DHT22;13339;50.840;4.346;2022-11-15T07:03:03;12.90;99.90
25410;DHT22;13339;50.840;4.346;2022-11-15T07:05:29;12.90;99.90
25410;DHT22;13339;50.840;4.346;2022-11-15T07:07:56;12.90;99.90
25410;DHT22;13339;50.840;4.346;2022-11-15T07:10:23;12.90;99.90
25410;DHT22;13339;50.840;4.346;2022-11-15T07:12:53;12.90;99.90
25410;DHT22;13339;50.840;4.346;2022-11-15T07:15:23;12.80;99.90
25410;DHT22;13339;50.840;4.346;2022-11-15T07:17:49;12.70;99.90
25410;DHT22;13339;50.840;4.346;2022-11-15T07:20:15;12.70;99.90
25410;DHT22;13339;50.840;4.346;2022-11-15T07:22:41;12.50;99.90
25410;DHT22;13339;50.840;4.346;2022-11-15T07:25:08;12.50;99.90
25410;DHT22;13339;50.840;4.346;2022-11-15T07:27:34;12.50;99.90
25410;DHT22;13339;50.840;4.346;2022-11-15T07:30:00;12.50;99.90
25410;DHT22;13339;50.840;4.346;2022-11-15T07:32:26;12.60;99.90
25410;DHT22;13339;50.840;4.346;2022-11-15T07:34:51;12.50;99.90
25410;DHT22;13339;50.840;4.346;2022-11-15T07:37:17;12.50;99.90
25410;DHT22;13339;50.840;4.346;2022-11-15T07:39:43;12.30;99.90
25410;DHT22;13339;50.840;4.346;2022-11-15T07:42:09;12.40;99.90
25410;DHT22;13339;50.840;4.346;2022-11-15T07:44:53;12.40;99.90
25410;DHT22;13339;50.840;4.346;2022-11-15T07:47:19;12.40;99.90
25410;DHT22;13339;50.840;4.346;2022-11-15T07:49:46;12.40;99.90
25410;DHT22;13339;50.840;4.346;2022-11-15T07:52:12;12.50;99.90
25410;DHT22;13339;50.840;4.346;2022-11-15T07:54:37;12.50;99.90
25410;DHT22;13339;50.840;4.346;2022-11-15T07:57:03;12.50;99.90
25410;DHT22;13339;50.840;4.346;2022-11-15T07:59:29;12.50;99.90
25410;DHT22;13339;50.840;4.346;2022-11-15T08:01:55;12.50;99.90
25410;DHT22;13339;50.840;4.346;2022-11-15T08:04:22;12.40;99.90
25410;DHT22;13339;50.840;4.346;2022-11-15T08:06:47;12.30;99.90
25410;DHT22;13339;50.840;4.346;2022-11-15T08:09:13;12.30;99.90
25410;DHT22;13339;50.840;4.346;2022-11-15T08:11:38;12.20;99.90
25410;DHT22;13339;50.840;4.346;2022-11-15T08:14:04;12.20;99.90
25410;DHT22;13339;50.840;4.346;2022-11-15T08:16:31;12.10;99.90
25410;DHT22;13339;50.840;4.346;2022-11-15T08:18:56;11.90;99.90
25410;DHT22;13339;50.840;4.346;2022-11-15T08:21:22;11.90;99.90
25410;DHT22;13339;50.840;4.346;2022-11-15T08:23:48;12.00;99.90
25410;DHT22;13339;50.840;4.346;2022-11-15T08:26:14;11.90;99.90
25410;DHT22;13339;50.840;4.346;2022-11-15T08:28:40;11.80;99.90
25410;DHT22;13339;50.840;4.346;2022-11-15T08:31:06;11.90;99.90
25410;DHT22;13339;50.840;4.346;2022-11-15T08:33:32;11.90;99.90
25410;DHT22;13339;50.840;4.346;2022-11-15T08:35:59;12.00;99.90
25410;DHT22;13339;50.840;4.346;2022-11-15T08:38:26;11.90;99.90
25410;DHT22;13339;50.840;4.346;2022-11-15T08:41:03;11.90;99.90
25410;DHT22;13339;50.840;4.346;2022-11-15T08:43:29;11.80;99.90
25410;DHT22;13339;50.840;4.346;2022-11-15T08:45:58;11.90;99.90
25410;DHT22;13339;50.840;4.346;2022-11-15T08:48:24;11.80;99.90
25410;DHT22;13339;50.840;4.346;2022-11-15T08:50:54;11.80;99.90
25410;DHT22;13339;50.840;4.346;2022-11-15T08:53:20;11.80;99.90
25410;DHT22;13339;50.840;4.346;2022-11-15T08:55:46;11.90;99.90
25410;DHT22;13339;50.840;4.346;2022-11-15T08:58:11;11.80;99.90
25410;DHT22;13339;50.840;4.346;2022-11-15T09:00:37;11.90;99.90
25410;DHT22;13339;50.840;4.346;2022-11-15T09:03:07;12.00;99.90
25410;DHT22;13339;50.840;4.346;2022-11-15T09:05:36;12.00;99.90
25410;DHT22;13339;50.840;4.346;2022-11-15T09:08:02;12.10;99.90
25410;DHT22;13339;50.840;4.346;2022-11-15T09:10:28;12.10;99.90
25410;DHT22;13339;50.840;4.346;2022-11-15T09:12:54;12.20;99.90
25410;DHT22;13339;50.840;4.346;2022-11-15T09:15:21;12.30;99.90
25410;DHT22;13339;50.840;4.346;2022-11-15T09:17:47;12.20;99.90
25410;DHT22;13339;50.840;4.346;2022-11-15T09:20:12;12.30;99.90
25410;DHT22;13339;50.840;4.346;2022-11-15T09:22:38;12.30;99.90
25410;DHT22;13339;50.840;4.346;2022-11-15T09:25:04;12.40;99.90
25410;DHT22;13339;50.840;4.346;2022-11-15T09:27:30;12.50;99.90
25410;DHT22;13339;50.840;4.346;2022-11-15T09:29:56;12.50;99.90
25410;DHT22;13339;50.840;4.346;2022-11-15T09:32:22;12.70;99.90
25410;DHT22;13339;50.840;4.346;2022-11-15T09:34:49;12.70;99.90
25410;DHT22;13339;50.840;4.346;2022-11-15T09:37:15;12.80;99.90
25410;DHT22;13339;50.840;4.346;2022-11-15T09:39:40;12.90;99.90
25410;DHT22;13339;50.840;4.346;2022-11-15T09:42:18;12.80;99.90
25410;DHT22;13339;50.840;4.346;2022-11-15T09:44:55;13.00;99.90
25410;DHT22;13339;50.840;4.346;2022-11-15T09:50:43;13.20;99.90
25410;DHT22;13339;50.840;4.346;2022-11-15T09:53:20;13.20;99.90
25410;DHT22;13339;50.840;4.346;2022-11-15T09:56:05;13.30;99.90
25410;DHT22;13339;50.840;4.346;2022-11-15T09:58:45;13.40;99.90
25410;DHT22;13339;50.840;4.346;2022-11-15T10:04:12;13.50;99.90
25410;DHT22;13339;50.840;4.346;2022-11-15T10:06:44;13.60;99.90
25410;DHT22;13339;50.840;4.346;2022-11-15T10:09:15;13.60;99.90
25410;DHT22;13339;50.840;4.346;2022-11-15T10:11:42;13.60;99.90
25410;DHT22;13339;50.840;4.346;2022-11-15T10:17:06;13.80;99.90
25410;DHT22;13339;50.840;4.346;2022-11-15T10:19:47;13.90;99.90
25410;DHT22;13339;50.840;4.346;2022-11-15T10:22:24;13.70;99.90
25410;DHT22;13339;50.840;4.346;2022-11-15T10:27:33;14.00;99.90
25410;DHT22;13339;50.840;4.346;2022-11-15T10:30:00;14.00;99.90
25410;DHT22;13339;50.840;4.346;2022-11-15T10:32:26;14.00;99.90
25410;DHT22;13339;50.840;4.346;2022-11-15T10:34:52;14.00;99.90
25410;DHT22;13339;50.840;4.346;2022-11-15T10:37:28;14.00;99.90
25410;DHT22;13339;50.840;4.346;2022-11-15T10:42:44;14.10;99.90
25410;DHT22;13339;50.840;4.346;2022-11-15T10:45:28;14.10;99.90
25410;DHT22;13339;50.840;4.346;2022-11-15T10:48:19;14.00;99.90
25410;DHT22;13339;50.840;4.346;2022-11-15T10:50:47;14.10;99.90
25410;DHT22;13339;50.840;4.346;2022-11-15T10:53:27;14.20;99.90
25410;DHT22;13339;50.840;4.346;2022-11-15T10:55:57;14.20;99.90
25410;DHT22;13339;50.840;4.346;2022-11-15T10:58:36;14.30;99.90
25410;DHT22;13339;50.840;4.346;2022-11-15T11:01:17;14.40;99.90
25410;DHT22;13339;50.840;4.346;2022-11-15T11:04:06;14.40;99.90
25410;DHT22;13339;50.840;4.346;2022-11-15T11:06:31;14.40;99.90
25410;DHT22;13339;50.840;4.346;2022-11-15T11:09:35;14.50;99.90
25410;DHT22;13339;50.840;4.346;2022-11-15T11:12:02;14.50;99.90
25410;DHT22;13339;50.840;4.346;2022-11-15T11:14:31;14.50;99.90
25410;DHT22;13339;50.840;4.346;2022-11-15T11:22:20;14.50;99.90
25410;DHT22;13339;50.840;4.346;2022-11-15T11:25:01;14.70;99.90
25410;DHT22;13339;50.840;4.346;2022-11-15T11:27:51;14.80;99.90
25410;DHT22;13339;50.840;4.346;2022-11-15T11:33:24;14.90;99.90
25410;DHT22;13339;50.840;4.346;2022-11-15T11:47:21;15.10;99.90
25410;DHT22;13339;50.840;4.346;2022-11-15T11:52:34;15.20;99.90
25410;DHT22;13339;50.840;4.346;2022-11-15T11:55:32;15.20;99.90
25410;DHT22;13339;50.840;4.346;2022-11-15T11:58:19;15.10;99.90
25410;DHT22;13339;50.840;4.346;2022-11-15T12:00:51;15.00;99.90
25410;DHT22;13339;50.840;4.346;2022-11-15T12:03:21;15.10;99.90
25410;DHT22;13339;50.840;4.346;2022-11-15T12:05:54;15.10;99.90
25410;DHT22;13339;50.840;4.346;2022-11-15T12:08:29;15.20;99.90
25410;DHT22;13339;50.840;4.346;2022-11-15T12:11:23;15.10;99.90
25410;DHT22;13339;50.840;4.346;2022-11-15T12:13:58;15.20;99.90
25410;DHT22;13339;50.840;4.346;2022-11-15T12:16:27;15.40;99.90
25410;DHT22;13339;50.840;4.346;2022-11-15T12:18:56;15.30;99.90
25410;DHT22;13339;50.840;4.346;2022-11-15T12:21:27;15.30;99.90
25410;DHT22;13339;50.840;4.346;2022-11-15T12:24:24;15.30;99.90
25410;DHT22;13339;50.840;4.346;2022-11-15T12:27:08;15.10;99.90
25410;DHT22;13339;50.840;4.346;2022-11-15T12:29:44;15.10;99.90
25410;DHT22;13339;50.840;4.346;2022-11-15T12:32:34;15.00;99.90
25410;DHT22;13339;50.840;4.346;2022-11-15T12:35:03;15.10;99.90
25410;DHT22;13339;50.840;4.346;2022-11-15T12:37:49;15.10;99.90
25410;DHT22;13339;50.840;4.346;2022-11-15T12:40:20;15.20;99.90
25410;DHT22;13339;50.840;4.346;2022-11-15T12:43:09;15.30;99.90
25410;DHT22;13339;50.840;4.346;2022-11-15T12:45:46;15.20;99.90
25410;DHT22;13339;50.840;4.346;2022-11-15T12:50:53;15.20;99.90
25410;DHT22;13339;50.840;4.346;2022-11-15T13:06:54;15.40;99.90
25410;DHT22;13339;50.840;4.346;2022-11-15T13:12:11;15.50;99.90
25410;DHT22;13339;50.840;4.346;2022-11-15T13:22:40;15.40;99.90
25410;DHT22;13339;50.840;4.346;2022-11-15T13:31:00;15.30;99.90
25410;DHT22;13339;50.840;4.346;2022-11-15T13:33:35;15.30;99.90
25410;DHT22;13339;50.840;4.346;2022-11-15T13:36:06;15.10;99.90
25410;DHT22;13339;50.840;4.346;2022-11-15T13:38:35;15.00;99.90
25410;DHT22;13339;50.840;4.346;2022-11-15T13:41:18;15.00;99.90
25410;DHT22;13339;50.840;4.346;2022-11-15T13:43:45;15.00;99.90
25410;DHT22;13339;50.840;4.346;2022-11-15T13:46:22;15.10;99.90
25410;DHT22;13339;50.840;4.346;2022-11-15T13:48:54;15.00;99.90
25410;DHT22;13339;50.840;4.346;2022-11-15T13:51:26;15.10;99.90
25410;DHT22;13339;50.840;4.346;2022-11-15T13:53:58;15.10;99.90
25410;DHT22;13339;50.840;4.346;2022-11-15T13:56:26;15.10;99.90
25410;DHT22;13339;50.840;4.346;2022-11-15T13:58:52;15.20;99.90
25410;DHT22;13339;50.840;4.346;2022-11-15T14:01:21;15.20;99.90
25410;DHT22;13339;50.840;4.346;2022-11-15T14:03:59;15.10;99.90
25410;DHT22;13339;50.840;4.346;2022-11-15T14:06:28;15.20;99.90
25410;DHT22;13339;50.840;4.346;2022-11-15T14:11:24;15.20;99.90
25410;DHT22;13339;50.840;4.346;2022-11-15T14:16:39;15.10;99.90
25410;DHT22;13339;50.840;4.346;2022-11-15T14:19:08;15.10;99.90
25410;DHT22;13339;50.840;4.346;2022-11-15T14:21:34;15.20;99.90
25410;DHT22;13339;50.840;4.346;2022-11-15T14:24:21;15.20;99.90
25410;DHT22;13339;50.840;4.346;2022-11-15T14:26:47;15.10;99.90
25410;DHT22;13339;50.840;4.346;2022-11-15T14:29:29;15.10;99.90
25410;DHT22;13339;50.840;4.346;2022-11-15T14:32:24;15.10;99.90
25410;DHT22;13339;50.840;4.346;2022-11-15T14:34:55;15.30;99.90
25410;DHT22;13339;50.840;4.346;2022-11-15T14:39:49;15.00;99.90
25410;DHT22;13339;50.840;4.346;2022-11-15T14:42:15;15.00;99.90
25410;DHT22;13339;50.840;4.346;2022-11-15T14:44:40;15.10;99.90
25410;DHT22;13339;50.840;4.346;2022-11-15T14:47:06;15.10;99.90
25410;DHT22;13339;50.840;4.346;2022-11-15T14:49:32;15.10;99.90
25410;DHT22;13339;50.840;4.346;2022-11-15T14:51:57;15.20;99.90
25410;DHT22;13339;50.840;4.346;2022-11-15T14:54:23;15.30;99.90
25410;DHT22;13339;50.840;4.346;2022-11-15T14:56:48;15.30;99.90
25410;DHT22;13339;50.840;4.346;2022-11-15T14:59:14;15.20;99.90
25410;DHT22;13339;50.840;4.346;2022-11-15T15:01:39;15.30;99.90
25410;DHT22;13339;50.840;4.346;2022-11-15T15:04:05;15.20;99.90
25410;DHT22;13339;50.840;4.346;2022-11-15T15:06:30;15.10;99.90
25410;DHT22;13339;50.840;4.346;2022-11-15T15:08:56;15.00;99.90
25410;DHT22;13339;50.840;4.346;2022-11-15T15:11:27;14.90;99.90
25410;DHT22;13339;50.840;4.346;2022-11-15T15:13:54;15.00;99.90
25410;DHT22;13339;50.840;4.346;2022-11-15T15:16:25;14.90;99.90
25410;DHT22;13339;50.840;4.346;2022-11-15T15:18:51;15.00;99.90
25410;DHT22;13339;50.840;4.346;2022-11-15T15:21:22;14.90;99.90
25410;DHT22;13339;50.840;4.346;2022-11-15T15:23:49;14.90;99.90
25410;DHT22;13339;50.840;4.346;2022-11-15T15:26:14;14.90;99.90
25410;DHT22;13339;50.840;4.346;2022-11-15T15:28:40;14.90;99.90
25410;DHT22;13339;50.840;4.346;2022-11-15T15:31:06;15.00;99.90
25410;DHT22;13339;50.840;4.346;2022-11-15T15:33:32;14.90;99.90
25410;DHT22;13339;50.840;4.346;2022-11-15T15:35:58;14.90;99.90
25410;DHT22;13339;50.840;4.346;2022-11-15T15:38:24;14.90;99.90
25410;DHT22;13339;50.840;4.346;2022-11-15T15:40:50;15.00;99.90
25410;DHT22;13339;50.840;4.346;2022-11-15T15:43:15;14.90;99.90
25410;DHT22;13339;50.840;4.346;2022-11-15T15:45:41;14.90;99.90
25410;DHT22;13339;50.840;4.346;2022-11-15T15:48:14;15.00;99.90
25410;DHT22;13339;50.840;4.346;2022-11-15T15:50:41;15.10;99.90
25410;DHT22;13339;50.840;4.346;2022-11-15T15:53:09;15.20;99.90
25410;DHT22;13339;50.840;4.346;2022-11-15T15:55:38;14.90;99.90
25410;DHT22;13339;50.840;4.346;2022-11-15T15:58:04;14.90;99.90
25410;DHT22;13339;50.840;4.346;2022-11-15T16:00:30;14.80;99.90
25410;DHT22;13339;50.840;4.346;2022-11-15T16:02:58;14.70;99.90
25410;DHT22;13339;50.840;4.346;2022-11-15T16:05:24;14.50;99.90
25410;DHT22;13339;50.840;4.346;2022-11-15T16:07:50;14.50;99.90
25410;DHT22;13339;50.840;4.346;2022-11-15T16:10:29;14.40;99.90
25410;DHT22;13339;50.840;4.346;2022-11-15T16:12:56;14.50;99.90
25410;DHT22;13339;50.840;4.346;2022-11-15T16:15:24;14.50;99.90
25410;DHT22;13339;50.840;4.346;2022-11-15T16:17:54;14.50;99.90
25410;DHT22;13339;50.840;4.346;2022-11-15T16:23:05;14.40;99.90
25410;DHT22;13339;50.840;4.346;2022-11-15T16:25:34;14.50;99.90
25410;DHT22;13339;50.840;4.346;2022-11-15T16:28:02;14.60;99.90
25410;DHT22;13339;50.840;4.346;2022-11-15T16:30:27;14.60;99.90
25410;DHT22;13339;50.840;4.346;2022-11-15T16:32:53;14.60;99.90
25410;DHT22;13339;50.840;4.346;2022-11-15T16:35:19;14.60;99.90
25410;DHT22;13339;50.840;4.346;2022-11-15T16:37:44;14.50;99.90
25410;DHT22;13339;50.840;4.346;2022-11-15T16:40:30;14.50;99.90
25410;DHT22;13339;50.840;4.346;2022-11-15T16:42:59;14.50;99.90
25410;DHT22;13339;50.840;4.346;2022-11-15T16:45:27;14.60;99.90
25410;DHT22;13339;50.840;4.346;2022-11-15T16:47:54;14.60;99.90
25410;DHT22;13339;50.840;4.346;2022-11-15T16:50:26;14.60;99.90
25410;DHT22;13339;50.840;4.346;2022-11-15T16:52:53;14.40;99.90
25410;DHT22;13339;50.840;4.346;2022-11-15T16:55:21;14.50;99.90
25410;DHT22;13339;50.840;4.346;2022-11-15T16:57:47;14.60;99.90
25410;DHT22;13339;50.840;4.346;2022-11-15T17:00:14;14.60;99.90
25410;DHT22;13339;50.840;4.346;2022-11-15T17:02:48;14.50;99.90
25410;DHT22;13339;50.840;4.346;2022-11-15T17:05:15;14.20;99.90
25410;DHT22;13339;50.840;4.346;2022-11-15T17:07:41;14.20;99.90
25410;DHT22;13339;50.840;4.346;2022-11-15T17:10:09;14.30;99.90
25410;DHT22;13339;50.840;4.346;2022-11-15T17:12:35;14.20;99.90
25410;DHT22;13339;50.840;4.346;2022-11-15T17:15:01;14.20;99.90
25410;DHT22;13339;50.840;4.346;2022-11-15T17:17:27;14.30;99.90
25410;DHT22;13339;50.840;4.346;2022-11-15T17:19:53;14.40;99.90
25410;DHT22;13339;50.840;4.346;2022-11-15T17:22:19;14.50;99.90
25410;DHT22;13339;50.840;4.346;2022-11-15T17:24:45;14.50;99.90
25410;DHT22;13339;50.840;4.346;2022-11-15T17:27:10;14.50;99.90
25410;DHT22;13339;50.840;4.346;2022-11-15T17:29:36;14.50;99.90
25410;DHT22;13339;50.840;4.346;2022-11-15T17:32:02;14.50;99.90